Time;durP1;ratioP1;P1;durP2;ratioP2;P2;SDS_P1;SDS_P2;PMS_P1;PMS_P2;Temp;Humidity;BMP_temperature;BMP_pressure;BME280_temperature;BME280_humidity;BME280_pressure;Samples;Min_cycle;Max_cycle;Signal;HPM_P1;HPM_P2
2022/05/22 00:02:03;;;;;;;6.13;3.67;;;10.50;99.90;;;;;;5073858;28;20044;-86
2022/05/22 00:04:29;;;;;;;7.78;3.90;;;10.40;99.90;;;;;;5069665;28;20452;-86
2022/05/22 00:06:55;;;;;;;7.13;2.95;;;10.30;99.90;;;;;;5061467;28;20124;-86
2022/05/22 00:09:21;;;;;;;7.00;3.22;;;10.20;99.90;;;;;;5053527;28;20474;-85
2022/05/22 00:11:46;;;;;;;7.20;3.75;;;10.20;99.90;;;;;;5052376;28;20075;-85
2022/05/22 00:14:13;;;;;;;7.57;4.40;;;10.20;99.90;;;;;;5052533;28;20028;-85
2022/05/22 00:16:46;;;;;;;9.18;4.20;;;10.30;99.90;;;;;;5053221;28;20055;-85
2022/05/22 00:19:16;;;;;;;9.23;4.25;;;10.30;99.90;;;;;;5053259;28;20048;-86
2022/05/22 00:21:42;;;;;;;9.02;4.38;;;10.30;99.90;;;;;;5053046;28;20037;-85
2022/05/22 00:24:10;;;;;;;9.23;5.07;;;10.40;99.90;;;;;;5052407;28;20045;-85
2022/05/22 00:26:36;;;;;;;8.77;4.70;;;10.40;99.90;;;;;;5053090;28;20099;-86
2022/05/22 00:29:02;;;;;;;7.95;4.30;;;10.30;99.90;;;;;;5036447;28;20475;-86
2022/05/22 00:31:27;;;;;;;9.23;3.92;;;10.30;99.90;;;;;;5036391;28;20044;-85
2022/05/22 00:33:53;;;;;;;8.27;3.95;;;10.30;99.90;;;;;;5052201;28;20037;-85
2022/05/22 00:36:19;;;;;;;6.63;4.22;;;10.20;99.90;;;;;;5052173;28;20502;-86
2022/05/22 00:38:45;;;;;;;8.93;3.80;;;10.10;99.90;;;;;;5051844;28;20041;-85
2022/05/22 00:41:11;;;;;;;6.97;4.30;;;10.00;99.90;;;;;;5052791;28;20041;-86
2022/05/22 00:43:40;;;;;;;8.30;4.40;;;10.00;99.90;;;;;;5032947;28;20231;-85
2022/05/22 00:46:08;;;;;;;7.93;4.10;;;9.90;99.90;;;;;;5050869;28;20037;-86
2022/05/22 00:48:34;;;;;;;6.60;4.15;;;9.90;99.90;;;;;;5036225;28;20044;-85
2022/05/22 00:51:19;;;;;;;7.40;4.00;;;9.80;99.90;;;;;;5052545;28;20082;-85
2022/05/22 00:53:54;;;;;;;7.97;4.40;;;9.70;99.90;;;;;;5035486;28;20044;-86
2022/05/22 00:56:25;;;;;;;8.30;4.70;;;9.70;99.90;;;;;;5036454;28;20406;-87
2022/05/22 00:58:54;;;;;;;9.02;4.85;;;9.80;99.90;;;;;;5036010;28;20040;-86
2022/05/22 01:01:20;;;;;;;10.50;4.82;;;9.90;99.90;;;;;;5032946;28;20116;-85
2022/05/22 01:03:46;;;;;;;9.43;5.10;;;9.90;99.90;;;;;;5061657;28;20068;-86
2022/05/22 01:06:20;;;;;;;9.63;4.82;;;10.00;99.90;;;;;;5072608;28;20422;-86
2022/05/22 01:08:47;;;;;;;9.00;4.50;;;10.00;99.90;;;;;;5072497;28;20131;-86
2022/05/22 01:11:18;;;;;;;6.68;4.30;;;10.00;99.90;;;;;;5055671;28;20040;-86
2022/05/22 01:13:52;;;;;;;13.02;4.63;;;10.00;99.90;;;;;;5054905;28;20036;-88
2022/05/22 01:16:18;;;;;;;;;;;10.00;99.90;;;;;;5072718;28;20079;-86
2022/05/22 01:18:50;;;;;;;7.25;4.40;;;9.90;99.90;;;;;;5072199;28;20024;-86
2022/05/22 01:21:31;;;;;;;13.35;4.93;;;9.80;99.90;;;;;;5054353;28;20051;-85
2022/05/22 01:23:57;;;;;;;11.50;5.30;;;9.70;99.90;;;;;;5028399;28;20043;-86
2022/05/22 01:26:26;;;;;;;11.60;4.85;;;9.70;99.90;;;;;;5035564;28;20132;-86
2022/05/22 01:28:51;;;;;;;9.07;4.82;;;9.80;99.90;;;;;;5052117;28;20103;-85
2022/05/22 01:31:17;;;;;;;8.05;4.47;;;9.80;99.90;;;;;;5051946;28;20041;-85
2022/05/22 01:33:43;;;;;;;6.97;3.63;;;9.80;99.90;;;;;;5051885;28;20055;-85
2022/05/22 01:36:10;;;;;;;5.57;2.58;;;9.90;99.90;;;;;;5051855;28;20029;-85
2022/05/22 01:38:37;;;;;;;3.55;2.40;;;9.70;99.90;;;;;;5051926;28;20423;-85
2022/05/22 01:41:04;;;;;;;5.05;2.45;;;9.70;99.90;;;;;;5035370;28;20403;-85
2022/05/22 01:43:30;;;;;;;6.55;3.45;;;9.70;99.90;;;;;;5051646;28;20514;-85
2022/05/22 01:45:55;;;;;;;7.25;4.15;;;9.60;99.90;;;;;;5034489;28;20067;-85
2022/05/22 01:48:22;;;;;;;5.75;3.70;;;9.60;99.90;;;;;;5047967;28;20037;-85
2022/05/22 01:50:48;;;;;;;7.55;3.97;;;9.50;99.90;;;;;;5051695;28;20507;-84
2022/05/22 01:53:14;;;;;;;6.75;4.03;;;9.40;99.90;;;;;;5051892;28;20047;-84
2022/05/22 01:55:40;;;;;;;6.38;4.10;;;9.30;99.90;;;;;;5050549;28;20041;-85
2022/05/22 01:58:09;;;;;;;7.88;4.32;;;9.30;99.90;;;;;;5034975;28;20052;-84
2022/05/22 02:00:35;;;;;;;9.88;4.30;;;9.40;99.90;;;;;;5051292;28;20119;-84
2022/05/22 02:03:02;;;;;;;6.85;4.30;;;9.40;99.90;;;;;;5050730;28;20072;-86
2022/05/22 02:05:27;;;;;;;7.07;4.25;;;9.40;99.90;;;;;;5050536;28;20047;-85
2022/05/22 02:10:38;;;;;;;7.30;4.40;;;9.40;99.90;;;;;;5051269;28;20037;-85
2022/05/22 02:13:04;;;;;;;7.50;4.50;;;9.40;99.90;;;;;;5051179;28;20041;-85
2022/05/22 02:15:30;;;;;;;5.47;3.53;;;9.40;99.90;;;;;;5050892;28;20099;-85
2022/05/22 02:17:56;;;;;;;6.18;3.28;;;9.40;99.90;;;;;;5034430;28;20044;-85
2022/05/22 02:20:22;;;;;;;8.13;4.50;;;9.30;99.90;;;;;;5051539;28;20449;-85
2022/05/22 02:22:53;;;;;;;5.22;3.80;;;9.30;99.90;;;;;;5051241;28;20037;-86
2022/05/22 02:25:23;;;;;;;5.43;3.97;;;9.30;99.90;;;;;;5033772;28;20040;-85
2022/05/22 02:27:48;;;;;;;4.80;3.72;;;9.20;99.90;;;;;;5034837;28;20423;-85
2022/05/22 02:30:19;;;;;;;6.25;3.78;;;9.10;99.90;;;;;;5051299;28;20052;-86
2022/05/22 02:32:44;;;;;;;7.03;4.00;;;9.10;99.90;;;;;;5051086;28;20053;-86
2022/05/22 02:35:13;;;;;;;7.45;4.25;;;9.10;99.90;;;;;;5050710;28;20444;-85
2022/05/22 02:37:47;;;;;;;6.18;3.80;;;9.10;99.90;;;;;;5051162;28;20609;-85
2022/05/22 02:40:14;;;;;;;7.15;3.90;;;9.10;99.90;;;;;;5051173;28;20128;-86
2022/05/22 02:42:46;;;;;;;3.85;2.95;;;9.00;99.90;;;;;;5050906;28;20045;-85
2022/05/22 02:45:13;;;;;;;4.43;2.28;;;9.10;99.90;;;;;;5033828;28;20072;-86
2022/05/22 02:47:38;;;;;;;4.72;2.63;;;9.00;99.90;;;;;;5034608;28;20053;-86
2022/05/22 02:50:06;;;;;;;7.80;2.67;;;9.00;99.90;;;;;;5045633;28;20384;-85
2022/05/22 02:52:31;;;;;;;6.40;2.92;;;9.00;99.90;;;;;;5050719;28;20040;-86
2022/05/22 02:54:57;;;;;;;8.10;3.65;;;9.00;99.90;;;;;;5050550;28;20045;-86
2022/05/22 02:57:23;;;;;;;7.57;3.80;;;8.90;99.90;;;;;;5050920;28;20039;-86
2022/05/22 02:59:49;;;;;;;5.22;3.85;;;8.90;99.90;;;;;;5050543;28;20033;-85
2022/05/22 03:02:15;;;;;;;6.97;3.72;;;8.90;99.90;;;;;;5047705;28;20041;-85
2022/05/22 03:04:40;;;;;;;6.50;3.80;;;9.00;99.90;;;;;;5050204;28;20518;-85
2022/05/22 03:07:08;;;;;;;7.20;3.65;;;9.00;99.90;;;;;;5050314;28;20041;-86
2022/05/22 03:09:37;;;;;;;6.15;3.67;;;9.00;99.90;;;;;;5050285;28;20039;-86
2022/05/22 03:12:11;;;;;;;6.05;3.33;;;9.00;99.90;;;;;;5050388;28;20557;-86
2022/05/22 03:14:37;;;;;;;7.38;4.07;;;9.00;99.90;;;;;;5049941;28;20116;-85
2022/05/22 03:17:02;;;;;;;6.82;4.20;;;9.00;99.90;;;;;;5050522;28;20499;-85
2022/05/22 03:19:28;;;;;;;7.38;3.72;;;9.00;99.90;;;;;;5050262;28;20041;-85
2022/05/22 03:21:53;;;;;;;6.13;3.90;;;9.00;99.90;;;;;;5050440;28;20036;-85
2022/05/22 03:24:19;;;;;;;4.78;3.63;;;9.00;99.90;;;;;;5049511;28;20075;-85
2022/05/22 03:26:45;;;;;;;4.80;3.50;;;9.00;99.90;;;;;;5050203;28;20046;-86
2022/05/22 03:29:11;;;;;;;7.13;4.10;;;9.00;99.90;;;;;;5050447;28;20090;-85
2022/05/22 03:31:37;;;;;;;6.55;3.80;;;8.90;99.90;;;;;;5033346;28;20048;-85
2022/05/22 03:34:04;;;;;;;7.47;4.03;;;8.90;99.90;;;;;;5049654;28;20886;-85
2022/05/22 03:36:29;;;;;;;5.00;3.30;;;8.90;99.90;;;;;;5043575;28;20040;-86
2022/05/22 03:38:55;;;;;;;6.10;3.83;;;8.90;99.90;;;;;;5033758;28;20518;-85
2022/05/22 03:41:21;;;;;;;8.35;3.90;;;8.90;99.90;;;;;;5049810;28;20088;-86
2022/05/22 03:43:46;;;;;;;7.40;3.20;;;8.90;99.90;;;;;;5049266;28;20041;-85
2022/05/22 03:46:12;;;;;;;5.88;3.85;;;8.80;99.90;;;;;;5033629;28;20043;-85
2022/05/22 03:48:38;;;;;;;8.63;4.60;;;8.70;99.90;;;;;;5050246;28;20056;-85
2022/05/22 03:51:04;;;;;;;8.77;4.85;;;8.70;99.90;;;;;;5033168;28;20095;-85
2022/05/22 03:53:29;;;;;;;9.82;4.97;;;8.60;99.90;;;;;;5049998;28;20452;-85
2022/05/22 03:55:55;;;;;;;9.40;4.75;;;8.70;99.90;;;;;;5049301;28;20076;-86
2022/05/22 03:58:20;;;;;;;8.60;4.65;;;8.60;99.90;;;;;;5033314;28;20041;-85
2022/05/22 04:00:46;;;;;;;8.98;4.93;;;8.60;99.90;;;;;;5049744;28;20124;-85
2022/05/22 04:03:12;;;;;;;8.35;4.90;;;8.60;99.90;;;;;;5050047;28;20491;-85
2022/05/22 04:05:38;;;;;;;7.95;4.82;;;8.70;99.90;;;;;;5032457;28;20041;-85
2022/05/22 04:08:04;;;;;;;8.25;4.65;;;8.80;99.90;;;;;;5033083;28;20442;-86
2022/05/22 04:10:31;;;;;;;9.77;4.70;;;8.80;99.90;;;;;;5050000;28;20096;-85
2022/05/22 04:12:57;;;;;;;9.35;4.45;;;8.90;99.90;;;;;;5032950;28;20041;-86
2022/05/22 04:15:23;;;;;;;12.18;4.78;;;9.00;99.90;;;;;;5049227;28;20080;-85
2022/05/22 04:17:49;;;;;;;6.85;4.22;;;9.10;99.90;;;;;;5033180;28;20503;-86
2022/05/22 04:20:18;;;;;;;13.05;4.60;;;9.20;99.90;;;;;;5052479;28;20367;-85
2022/05/22 04:25:28;;;;;;;9.93;4.90;;;9.30;99.90;;;;;;5052630;28;20085;-85
2022/05/22 04:27:53;;;;;;;12.25;5.10;;;9.30;99.90;;;;;;5036549;28;20072;-85
2022/05/22 04:30:20;;;;;;;10.65;5.60;;;9.30;99.90;;;;;;5053113;28;20158;-85
2022/05/22 04:32:47;;;;;;;11.38;5.20;;;9.40;99.90;;;;;;5036334;28;20124;-85
2022/05/22 04:35:13;;;;;;;8.98;4.97;;;9.50;99.90;;;;;;5035629;28;20461;-85
2022/05/22 04:37:39;;;;;;;9.65;5.30;;;9.50;99.90;;;;;;5052899;28;20079;-85
2022/05/22 04:40:07;;;;;;;10.07;4.95;;;9.50;99.90;;;;;;5052991;28;20073;-85
2022/05/22 04:42:34;;;;;;;11.73;5.35;;;9.60;99.90;;;;;;5053004;28;20063;-85
2022/05/22 04:44:59;;;;;;;10.32;4.97;;;9.70;99.90;;;;;;5052133;28;20037;-85
2022/05/22 04:47:25;;;;;;;11.65;5.13;;;9.80;99.90;;;;;;5052743;28;20118;-85
2022/05/22 04:49:50;;;;;;;7.47;4.85;;;9.90;99.90;;;;;;5052880;28;20395;-85
2022/05/22 04:52:16;;;;;;;10.27;5.55;;;10.00;99.90;;;;;;5036143;28;20087;-84
2022/05/22 04:54:42;;;;;;;10.27;4.50;;;10.00;99.90;;;;;;5052147;28;20045;-85
2022/05/22 04:57:08;;;;;;;15.35;5.18;;;10.10;99.90;;;;;;5052557;28;20123;-84
2022/05/22 04:59:33;;;;;;;13.95;5.80;;;10.20;99.90;;;;;;5052742;28;20040;-85
2022/05/22 05:01:59;;;;;;;11.55;5.00;;;10.30;99.90;;;;;;5052441;28;20128;-85
2022/05/22 05:04:24;;;;;;;10.20;4.60;;;10.30;99.90;;;;;;5035592;28;20494;-84
2022/05/22 05:06:52;;;;;;;13.45;4.97;;;10.40;99.90;;;;;;5052737;28;20060;-85
2022/05/22 05:09:18;;;;;;;11.10;5.80;;;10.40;99.90;;;;;;5052457;28;20052;-84
2022/05/22 05:11:44;;;;;;;11.05;5.40;;;10.50;99.90;;;;;;5036097;28;20419;-84
2022/05/22 05:14:09;;;;;;;13.00;5.15;;;10.50;99.90;;;;;;5035722;28;20057;-86
2022/05/22 05:16:35;;;;;;;12.50;5.50;;;10.60;99.90;;;;;;5051920;28;20041;-84
2022/05/22 05:19:01;;;;;;;10.00;5.60;;;10.70;99.90;;;;;;5052770;28;20056;-85
2022/05/22 05:21:28;;;;;;;10.45;5.60;;;10.70;99.90;;;;;;5052480;28;20080;-84
2022/05/22 05:23:55;;;;;;;10.70;5.63;;;10.80;99.90;;;;;;5046020;28;20029;-84
2022/05/22 05:26:22;;;;;;;12.65;6.10;;;10.90;99.90;;;;;;5053037;28;20388;-84
2022/05/22 05:28:48;;;;;;;9.38;5.85;;;11.00;99.90;;;;;;5051969;28;20396;-84
2022/05/22 05:31:14;;;;;;;13.82;6.03;;;11.20;99.90;;;;;;5051462;28;20453;-85
2022/05/22 05:33:39;;;;;;;13.00;7.05;;;11.30;99.90;;;;;;5051960;28;20049;-84
2022/05/22 05:36:09;;;;;;;12.15;6.03;;;11.40;99.90;;;;;;5051660;28;20036;-85
2022/05/22 05:38:35;;;;;;;14.20;6.35;;;11.50;99.90;;;;;;5051983;28;20091;-84
2022/05/22 05:41:00;;;;;;;12.23;6.03;;;11.70;99.90;;;;;;5051654;28;20486;-85
2022/05/22 05:43:26;;;;;;;14.95;6.90;;;11.80;99.90;;;;;;5034994;28;20486;-84
2022/05/22 05:45:51;;;;;;;12.65;6.20;;;12.00;99.90;;;;;;5051037;28;20415;-84
2022/05/22 05:48:18;;;;;;;12.50;6.65;;;12.10;99.90;;;;;;5051507;28;20502;-85
2022/05/22 05:50:43;;;;;;;13.38;6.63;;;12.20;99.90;;;;;;5034827;28;20044;-85
2022/05/22 05:53:09;;;;;;;16.88;7.15;;;12.30;99.90;;;;;;5051732;28;20052;-86
2022/05/22 05:55:34;;;;;;;13.18;7.13;;;12.40;99.90;;;;;;5034574;28;20040;-85
2022/05/22 05:58:00;;;;;;;17.65;7.13;;;12.50;99.90;;;;;;5050625;28;20170;-85
2022/05/22 06:00:26;;;;;;;17.75;7.00;;;12.60;99.90;;;;;;5049263;28;20044;-85
2022/05/22 06:02:52;;;;;;;16.58;7.18;;;12.80;99.90;;;;;;5051167;28;20048;-85
2022/05/22 06:05:18;;;;;;;16.90;7.43;;;12.90;99.90;;;;;;5049365;28;20115;-85
2022/05/22 06:07:50;;;;;;;14.27;6.75;;;13.00;99.90;;;;;;5031727;28;20219;-84
2022/05/22 06:10:18;;;;;;;15.55;6.93;;;13.10;99.90;;;;;;5046895;28;20090;-84
2022/05/22 06:12:43;;;;;;;14.98;7.20;;;13.20;99.90;;;;;;5050694;28;20641;-83
2022/05/22 06:15:09;;;;;;;15.68;7.10;;;13.40;99.90;;;;;;5050685;28;20033;-84
2022/05/22 06:17:38;;;;;;;15.05;6.63;;;13.40;99.90;;;;;;5034426;28;20090;-85
2022/05/22 06:20:07;;;;;;;15.55;6.38;;;13.50;99.90;;;;;;5050846;28;20133;-84
2022/05/22 06:22:34;;;;;;;16.33;6.93;;;13.60;99.90;;;;;;5048357;28;20063;-84
2022/05/22 06:25:03;;;;;;;16.58;6.20;;;13.60;99.90;;;;;;5046119;28;20032;-83
2022/05/22 06:27:28;;;;;;;13.65;6.75;;;13.70;99.90;;;;;;5050761;28;20075;-84
2022/05/22 06:29:54;;;;;;;17.77;6.70;;;13.80;99.90;;;;;;5050898;28;20090;-86
2022/05/22 06:32:21;;;;;;;17.73;6.43;;;13.90;99.90;;;;;;5050552;28;20132;-83
2022/05/22 06:34:47;;;;;;;15.05;6.82;;;14.00;99.90;;;;;;5050004;28;20045;-83
2022/05/22 06:37:17;;;;;;;15.20;6.57;;;14.10;99.90;;;;;;5034217;28;20037;-83
2022/05/22 06:39:52;;;;;;;15.10;5.93;;;14.30;99.90;;;;;;5032676;28;20045;-83
2022/05/22 06:42:23;;;;;;;13.95;6.28;;;14.40;99.90;;;;;;5050229;28;20037;-84
2022/05/22 06:45:03;;;;;;;14.02;6.10;;;14.40;99.90;;;;;;5046775;28;20037;-83
2022/05/22 06:47:30;;;;;;;14.35;6.00;;;14.50;99.90;;;;;;5047327;28;20037;-83
2022/05/22 06:49:57;;;;;;;18.05;5.90;;;14.60;99.90;;;;;;5049715;28;20067;-84
2022/05/22 06:52:23;;;;;;;14.05;5.43;;;14.70;99.90;;;;;;5049119;28;20088;-83
2022/05/22 06:54:49;;;;;;;17.15;5.80;;;14.70;99.90;;;;;;5029653;28;20037;-83
2022/05/22 06:57:20;;;;;;;14.05;5.80;;;14.90;99.90;;;;;;5050381;28;20037;-82
2022/05/22 06:59:47;;;;;;;17.40;5.00;;;15.00;99.90;;;;;;5049298;28;20049;-83
2022/05/22 07:02:13;;;;;;;20.33;5.30;;;15.10;99.90;;;;;;5050767;28;20052;-82
2022/05/22 07:04:40;;;;;;;13.05;4.80;;;15.20;99.90;;;;;;5048190;28;20048;-83
2022/05/22 07:07:06;;;;;;;16.83;5.05;;;15.30;99.90;;;;;;5043873;28;20045;-83
2022/05/22 07:09:32;;;;;;;16.50;5.13;;;15.40;99.90;;;;;;5043867;28;20388;-83
2022/05/22 07:11:59;;;;;;;14.73;5.43;;;15.50;99.90;;;;;;5061357;28;20044;-83
2022/05/22 07:14:27;;;;;;;13.63;5.00;;;15.50;99.90;;;;;;5042917;28;20047;-83
2022/05/22 07:16:54;;;;;;;8.90;3.92;;;15.60;99.90;;;;;;5043576;28;20037;-83
2022/05/22 07:19:19;;;;;;;9.98;4.07;;;15.80;99.90;;;;;;5044095;28;20198;-81
2022/05/22 07:21:46;;;;;;;12.52;3.50;;;15.80;99.90;;;;;;5025834;28;20136;-82
2022/05/22 07:24:13;;;;;;;9.68;3.35;;;15.80;99.90;;;;;;5041336;28;20040;-82
2022/05/22 07:26:38;;;;;;;13.52;3.58;;;16.00;99.90;;;;;;5044732;28;20403;-82
2022/05/22 07:29:04;;;;;;;11.52;3.40;;;16.10;99.90;;;;;;5049456;28;20062;-83
2022/05/22 07:31:29;;;;;;;11.68;3.40;;;16.20;99.90;;;;;;5043939;28;20120;-83
2022/05/22 07:33:57;;;;;;;13.52;3.85;;;16.30;99.90;;;;;;5058940;28;20533;-84
2022/05/22 07:36:23;;;;;;;11.25;3.63;;;16.40;99.90;;;;;;5047943;28;20065;-81
2022/05/22 07:38:48;;;;;;;10.60;3.10;;;16.50;99.90;;;;;;5045340;28;20106;-82
2022/05/22 07:41:15;;;;;;;9.52;2.95;;;16.50;99.90;;;;;;5030358;28;20045;-82
2022/05/22 07:43:41;;;;;;;11.40;4.07;;;16.60;99.90;;;;;;5050863;28;20106;-82
2022/05/22 07:46:08;;;;;;;8.70;2.80;;;16.50;99.90;;;;;;5049985;28;20045;-82
2022/05/22 07:48:34;;;;;;;12.30;3.10;;;16.70;99.90;;;;;;5050200;28;20445;-82
2022/05/22 07:51:02;;;;;;;9.90;3.30;;;16.70;99.90;;;;;;5050108;28;20045;-82
2022/05/22 07:53:28;;;;;;;10.40;2.60;;;16.80;99.90;;;;;;5052735;28;20411;-82
2022/05/22 07:55:54;;;;;;;10.88;1.77;;;16.80;99.90;;;;;;5037027;28;20375;-82
2022/05/22 07:58:22;;;;;;;6.75;2.15;;;16.40;99.90;;;;;;5054042;28;20578;-82
2022/05/22 08:00:49;;;;;;;7.85;2.10;;;16.30;99.90;;;;;;5053808;28;20095;-82
2022/05/22 08:03:16;;;;;;;8.48;2.03;;;16.40;99.90;;;;;;5053719;28;20568;-81
2022/05/22 08:05:42;;;;;;;6.53;2.00;;;16.60;99.90;;;;;;5053538;28;20044;-81
2022/05/22 08:08:09;;;;;;;10.25;2.55;;;16.80;99.90;;;;;;5054610;28;20041;-82
2022/05/22 08:10:39;;;;;;;8.23;2.10;;;16.90;99.90;;;;;;5055143;28;20036;-81
2022/05/22 08:13:06;;;;;;;8.77;2.40;;;17.00;99.90;;;;;;5051220;28;20045;-81
2022/05/22 08:15:33;;;;;;;10.07;2.55;;;17.10;99.90;;;;;;5053415;28;20071;-81
2022/05/22 08:17:59;;;;;;;6.78;2.35;;;17.10;99.90;;;;;;5053060;28;20048;-84
2022/05/22 08:20:27;;;;;;;7.38;2.35;;;17.20;99.90;;;;;;5053149;28;20033;-82
2022/05/22 08:22:59;;;;;;;9.77;2.50;;;17.30;99.90;;;;;;5053428;28;20041;-83
2022/05/22 08:25:27;;;;;;;7.35;2.20;;;17.10;99.90;;;;;;5053039;28;20052;-82
2022/05/22 08:27:53;;;;;;;13.55;2.50;;;17.10;99.90;;;;;;5054367;28;20041;-81
2022/05/22 08:30:20;;;;;;;9.60;2.53;;;17.20;99.90;;;;;;5054450;28;20041;-82
2022/05/22 08:32:47;;;;;;;7.97;2.30;;;17.20;99.90;;;;;;5053543;28;20095;-82
2022/05/22 08:35:17;;;;;;;6.97;2.20;;;17.40;99.90;;;;;;5036102;28;20407;-82
2022/05/22 08:37:43;;;;;;;7.05;2.00;;;17.70;99.90;;;;;;5053321;28;20044;-84
2022/05/22 08:40:11;;;;;;;5.25;1.90;;;17.80;99.90;;;;;;5052988;28;20120;-82
2022/05/22 08:42:42;;;;;;;8.65;2.50;;;17.90;99.90;;;;;;5052504;28;20041;-82
2022/05/22 08:45:40;;;;;;;7.68;2.15;;;17.80;99.90;;;;;;5036384;28;20071;-82
2022/05/22 08:48:34;;;;;;;6.88;1.92;;;17.80;99.90;;;;;;5048007;28;20049;-83
2022/05/22 08:51:01;;;;;;;9.20;2.67;;;17.90;99.90;;;;;;5050648;28;20475;-83
2022/05/22 08:53:38;;;;;;;10.43;2.13;;;17.80;99.90;;;;;;5051959;28;20477;-82
2022/05/22 08:59:21;;;;;;;8.23;2.03;;;18.20;99.90;;;;;;5053402;28;20044;-81
2022/05/22 09:02:05;;;;;;;7.43;1.90;;;18.30;99.90;;;;;;5052240;28;20048;-82
2022/05/22 09:04:40;;;;;;;10.68;2.38;;;18.30;99.90;;;;;;5035412;28;20053;-82
2022/05/22 09:07:15;;;;;;;9.93;2.22;;;18.40;99.90;;;;;;5051422;28;20036;-83
2022/05/22 09:09:42;;;;;;;7.45;2.22;;;18.30;99.90;;;;;;5052294;28;20044;-82
2022/05/22 09:12:23;;;;;;;7.43;2.10;;;18.00;99.90;;;;;;5050523;28;20037;-83
2022/05/22 09:15:08;;;;;;;9.52;1.95;;;17.90;99.90;;;;;;5032797;28;20040;-83
2022/05/22 09:17:55;;;;;;;7.32;2.22;;;18.00;99.90;;;;;;5052438;28;20440;-83
2022/05/22 09:20:52;;;;;;;9.48;2.22;;;18.00;99.90;;;;;;5052184;28;20550;-83
2022/05/22 09:23:40;;;;;;;9.15;2.22;;;17.90;99.90;;;;;;5052922;28;20045;-82
2022/05/22 09:26:30;;;;;;;9.05;2.08;;;17.70;99.90;;;;;;5053361;28;20056;-82
2022/05/22 09:29:14;;;;;;;10.85;2.20;;;17.60;99.90;;;;;;5052178;28;20119;-83
2022/05/22 09:31:59;;;;;;;9.63;2.15;;;17.50;99.90;;;;;;5048135;28;20040;-83
2022/05/22 09:34:34;;;;;;;8.75;2.58;;;17.70;99.90;;;;;;5037461;28;20052;-82
2022/05/22 09:37:14;;;;;;;8.00;2.10;;;17.90;99.90;;;;;;5052236;28;20041;-82
2022/05/22 09:39:58;;;;;;;9.05;1.88;;;18.00;99.90;;;;;;5052570;28;20103;-83
2022/05/22 09:42:55;;;;;;;8.55;1.75;;;18.00;99.90;;;;;;5051961;28;20041;-83
2022/05/22 09:45:27;;;;;;;9.80;2.03;;;18.10;99.90;;;;;;5051995;28;20048;-82
2022/05/22 09:48:10;;;;;;;8.15;2.03;;;18.00;99.90;;;;;;5052010;28;20399;-83
2022/05/22 09:51:00;;;;;;;8.75;2.00;;;17.70;99.90;;;;;;5035225;28;20178;-83
2022/05/22 09:54:08;;;;;;;6.85;2.10;;;17.70;99.90;;;;;;5034782;28;20046;-83
2022/05/22 09:56:49;;;;;;;9.00;2.10;;;17.60;99.90;;;;;;5034032;28;20407;-83
2022/05/22 09:59:39;;;;;;;6.50;1.73;;;17.70;99.90;;;;;;5051415;28;20380;-82
2022/05/22 10:02:36;;;;;;;6.65;1.77;;;17.90;99.90;;;;;;5051295;28;20103;-82
2022/05/22 10:05:26;;;;;;;8.45;2.25;;;18.10;99.90;;;;;;5039669;28;20075;-80
2022/05/22 10:08:25;;;;;;;7.72;1.83;;;18.40;99.90;;;;;;5041565;28;20076;-82
2022/05/22 10:11:18;;;;;;;6.85;2.00;;;18.80;99.90;;;;;;5045340;28;20048;-83
2022/05/22 10:14:03;;;;;;;7.80;2.55;;;19.00;99.90;;;;;;5061259;28;20422;-83
2022/05/22 10:16:47;;;;;;;8.32;1.65;;;19.10;99.90;;;;;;5045362;28;20033;-82
2022/05/22 10:19:13;;;;;;;7.25;1.52;;;19.00;99.90;;;;;;5046063;28;20033;-82
2022/05/22 10:21:52;;;;;;;6.40;1.77;;;19.00;99.90;;;;;;5046786;28;20056;-81
2022/05/22 10:24:45;;;;;;;7.45;1.70;;;19.00;99.90;;;;;;5060804;28;20041;-82
2022/05/22 10:27:48;;;;;;;6.40;2.10;;;18.70;99.90;;;;;;5029762;28;20055;-82
2022/05/22 10:30:23;;;;;;;8.75;2.50;;;18.80;99.90;;;;;;5033158;28;20043;-83
2022/05/22 10:32:55;;;;;;;6.65;1.90;;;19.10;99.90;;;;;;5031154;28;20052;-82
2022/05/22 10:35:32;;;;;;;7.70;2.40;;;19.40;99.90;;;;;;5030385;28;20447;-82
2022/05/22 10:38:11;;;;;;;8.77;2.00;;;19.60;99.90;;;;;;5029847;28;20084;-83
2022/05/22 10:43:33;;;;;;;5.32;1.60;;;20.40;99.90;;;;;;5031180;28;20057;-83
2022/05/22 10:45:58;;;;;;;4.25;1.65;;;20.40;99.90;;;;;;5029960;28;20052;-84
2022/05/22 10:48:24;;;;;;;7.93;1.88;;;20.50;99.90;;;;;;5030838;28;20037;-83
2022/05/22 10:51:11;;;;;;;6.53;2.00;;;20.40;99.90;;;;;;5042546;28;20047;-84
2022/05/22 10:53:46;;;;;;;7.30;1.98;;;20.20;99.90;;;;;;5048799;28;20236;-85
2022/05/22 10:56:19;;;;;;;8.32;1.80;;;19.80;99.90;;;;;;5048776;28;20355;-85
2022/05/22 10:59:19;;;;;;;9.88;2.03;;;19.80;99.90;;;;;;5049845;28;20059;-86
2022/05/22 11:01:57;;;;;;;6.93;1.85;;;19.70;99.90;;;;;;5041466;28;20072;-85
2022/05/22 11:04:37;;;;;;;7.18;1.70;;;20.10;99.90;;;;;;5049448;28;20041;-85
2022/05/22 11:07:05;;;;;;;7.28;1.83;;;20.30;99.90;;;;;;5050519;28;20143;-85
2022/05/22 11:09:43;;;;;;;6.20;1.85;;;20.10;99.90;;;;;;5033759;28;20048;-85
2022/05/22 11:12:11;;;;;;;8.18;2.13;;;19.90;99.90;;;;;;5046954;28;20033;-84
2022/05/22 11:14:39;;;;;;;4.53;1.67;;;19.90;99.90;;;;;;5045507;28;20037;-85
2022/05/22 11:17:14;;;;;;;7.65;1.80;;;20.30;99.90;;;;;;5049664;28;20051;-84
2022/05/22 11:19:42;;;;;;;5.35;1.60;;;20.50;99.90;;;;;;5046898;28;20066;-84
2022/05/22 11:22:11;;;;;;;6.43;1.75;;;20.40;99.90;;;;;;5059684;28;20056;-84
2022/05/22 11:24:49;;;;;;;4.63;1.58;;;20.20;99.90;;;;;;5032831;28;20111;-85
2022/05/22 11:28:00;;;;;;;8.02;2.13;;;20.10;99.90;;;;;;5050128;28;20517;-84
2022/05/22 11:30:41;;;;;;;7.60;2.65;;;20.10;99.90;;;;;;5031498;28;20037;-85
2022/05/22 11:33:34;;;;;;;4.78;1.65;;;20.00;99.90;;;;;;5065792;28;20418;-85
2022/05/22 11:36:35;;;;;;;6.55;1.67;;;20.00;99.90;;;;;;5046605;28;20049;-84
2022/05/22 11:39:26;;;;;;;6.13;1.30;;;20.20;99.90;;;;;;5014867;28;20108;-84
2022/05/22 11:42:25;;;;;;;5.97;1.73;;;20.80;99.90;;;;;;5027502;28;20411;-83
2022/05/22 11:45:41;;;;;;;5.72;1.60;;;21.10;99.90;;;;;;5044446;28;20033;-84
2022/05/22 11:48:40;;;;;;;5.20;1.38;;;21.20;99.90;;;;;;5020243;28;20055;-84
2022/05/22 11:51:23;;;;;;;4.45;1.50;;;21.40;99.90;;;;;;5032761;28;20084;-86
2022/05/22 11:53:59;;;;;;;6.15;1.50;;;21.40;99.90;;;;;;5047518;28;20544;-85
2022/05/22 11:57:02;;;;;;;6.72;1.52;;;21.20;99.90;;;;;;5061654;28;20111;-86
2022/05/22 11:59:54;;;;;;;5.88;2.13;;;21.30;99.90;;;;;;5047475;28;20461;-86
2022/05/22 12:02:40;;;;;;;7.53;1.40;;;21.80;99.90;;;;;;5036037;28;20068;-86
2022/05/22 12:05:40;;;;;;;6.13;1.80;;;21.80;99.90;;;;;;5030897;28;20041;-85
2022/05/22 12:08:36;;;;;;;7.43;1.83;;;21.60;99.90;;;;;;5043304;28;20135;-86
2022/05/22 12:11:21;;;;;;;6.50;1.83;;;21.50;99.90;;;;;;5026671;28;20491;-86
2022/05/22 12:14:18;;;;;;;5.55;1.65;;;21.40;99.90;;;;;;5047284;28;20040;-86
2022/05/22 12:17:10;;;;;;;9.80;1.50;;;21.40;99.90;;;;;;5048709;28;20037;-85
2022/05/22 12:19:42;;;;;;;6.38;1.60;;;21.30;99.90;;;;;;5024253;28;20129;-85
2022/05/22 12:22:19;;;;;;;3.88;1.30;;;21.30;99.90;;;;;;5026815;28;20070;-86
2022/05/22 12:24:59;;;;;;;5.00;1.23;;;21.30;99.90;;;;;;5040061;28;20037;-86
2022/05/22 12:27:31;;;;;;;3.88;1.30;;;21.30;99.90;;;;;;5047288;28;20116;-85
2022/05/22 12:30:05;;;;;;;5.05;1.20;;;21.30;99.90;;;;;;5048003;28;20060;-84
2022/05/22 12:32:42;;;;;;;6.10;1.30;;;21.40;99.90;;;;;;5049023;28;20033;-85
2022/05/22 12:35:08;;;;;;;4.47;1.30;;;21.70;99.90;;;;;;5029169;28;20045;-85
2022/05/22 12:37:52;;;;;;;5.15;1.25;;;22.30;99.90;;;;;;5027833;28;20445;-84
2022/05/22 12:40:25;;;;;;;5.75;1.50;;;22.80;99.90;;;;;;5033113;28;20037;-83
2022/05/22 12:42:56;;;;;;;4.18;1.08;;;23.00;99.90;;;;;;5052955;28;20080;-83
2022/05/22 12:45:25;;;;;;;3.80;1.10;;;23.10;99.90;;;;;;5052226;28;20037;-84
2022/05/22 12:47:53;;;;;;;4.32;1.27;;;23.00;99.90;;;;;;5036150;28;20128;-84
2022/05/22 12:50:34;;;;;;;3.83;1.42;;;22.70;99.90;;;;;;5052017;28;20049;-85
2022/05/22 12:53:01;;;;;;;4.63;1.40;;;22.50;99.80;;;;;;5051873;28;20466;-84
2022/05/22 12:55:33;;;;;;;6.05;1.40;;;22.30;99.90;;;;;;5051971;28;20045;-84
2022/05/22 12:58:04;;;;;;;5.88;1.67;;;22.10;99.70;;;;;;5048741;28;20048;-84
2022/05/22 13:00:38;;;;;;;5.35;1.33;;;22.10;99.90;;;;;;5047683;28;20079;-85
2022/05/22 13:03:22;;;;;;;5.28;1.40;;;21.90;99.90;;;;;;5029508;28;20045;-84
2022/05/22 13:06:17;;;;;;;6.55;1.48;;;21.60;99.80;;;;;;5046329;28;20083;-84
2022/05/22 13:08:57;;;;;;;4.72;1.27;;;21.60;99.90;;;;;;5046824;28;20640;-85
2022/05/22 13:11:38;;;;;;;3.00;1.23;;;21.70;99.90;;;;;;5031649;28;20040;-84
2022/05/22 13:14:04;;;;;;;5.60;1.13;;;21.80;99.90;;;;;;5028054;28;20537;-84
2022/05/22 13:16:42;;;;;;;7.28;1.65;;;22.00;99.90;;;;;;5048004;28;20041;-84
2022/05/22 13:19:16;;;;;;;5.55;1.33;;;22.10;99.90;;;;;;5045457;28;20557;-83
2022/05/22 13:21:43;;;;;;;5.15;1.38;;;22.40;99.90;;;;;;5048462;28;20049;-84
2022/05/22 13:24:17;;;;;;;5.38;1.45;;;22.60;99.90;;;;;;5045973;28;20111;-83